createdAt,value
2022-11-16T00:02:25.040Z,17.92
2022-11-16T00:07:33.727Z,17.87
2022-11-16T00:12:41.106Z,17.82
2022-11-16T00:17:44.544Z,17.81
2022-11-16T00:22:48.009Z,17.78
2022-11-16T00:27:51.485Z,17.73
2022-11-16T00:32:54.785Z,17.77
2022-11-16T00:37:58.683Z,17.85
2022-11-16T00:43:01.772Z,17.92
2022-11-16T00:48:04.859Z,18.00
2022-11-16T00:53:12.508Z,18.06
2022-11-16T00:58:16.392Z,18.11
2022-11-16T01:03:22.745Z,18.12
2022-11-16T01:08:26.298Z,18.05
2022-11-16T01:13:30.003Z,17.90
2022-11-16T01:18:33.848Z,17.43
2022-11-16T01:23:37.276Z,16.95
2022-11-16T01:28:41.506Z,16.69
2022-11-16T01:33:46.191Z,16.68
2022-11-16T01:38:55.880Z,16.71
2022-11-16T01:44:33.938Z,16.77
2022-11-16T01:49:49.794Z,16.81
2022-11-16T01:55:03.089Z,16.73
2022-11-16T02:00:18.403Z,16.72
2022-11-16T02:06:02.800Z,16.76
2022-11-16T02:11:34.114Z,16.74
2022-11-16T02:16:46.957Z,16.75
2022-11-16T02:22:13.903Z,16.70
2022-11-16T02:27:36.921Z,16.67
2022-11-16T02:32:59.770Z,16.64
2022-11-16T02:38:11.112Z,16.59
2022-11-16T02:43:21.981Z,16.50
2022-11-16T02:48:33.987Z,16.40
2022-11-16T02:53:43.159Z,16.34
2022-11-16T02:58:48.663Z,16.32
2022-11-16T03:04:02.542Z,16.29
2022-11-16T03:09:17.936Z,16.24
2022-11-16T03:14:26.234Z,16.23
2022-11-16T03:19:58.491Z,16.26
2022-11-16T03:25:02.335Z,16.25
2022-11-16T03:30:13.526Z,16.31
2022-11-16T03:35:30.508Z,16.38
2022-11-16T03:40:37.727Z,16.35
2022-11-16T03:45:41.854Z,16.35
2022-11-16T03:50:46.515Z,16.39
2022-11-16T03:55:50.738Z,16.37
2022-11-16T04:00:54.600Z,16.38
2022-11-16T04:05:58.409Z,16.39
2022-11-16T04:11:01.945Z,16.38
2022-11-16T04:16:10.510Z,16.41
2022-11-16T04:21:22.431Z,16.46
2022-11-16T04:26:26.897Z,16.51
2022-11-16T04:31:30.733Z,16.56
2022-11-16T04:36:39.469Z,16.62
2022-11-16T04:41:42.992Z,16.67
2022-11-16T04:46:47.415Z,16.74
2022-11-16T04:51:51.074Z,16.82
2022-11-16T04:56:54.154Z,16.85
2022-11-16T05:01:58.451Z,16.91
2022-11-16T05:07:02.014Z,16.97
2022-11-16T05:12:06.443Z,16.99
2022-11-16T05:17:10.323Z,17.07
2022-11-16T05:22:14.209Z,17.13
2022-11-16T05:27:19.345Z,17.16
2022-11-16T05:32:24.566Z,17.14
2022-11-16T05:37:31.294Z,17.18
2022-11-16T05:42:34.938Z,17.28
2022-11-16T05:47:39.222Z,17.40
2022-11-16T05:52:43.185Z,17.59
2022-11-16T05:57:48.230Z,17.93
2022-11-16T06:02:51.944Z,17.97
2022-11-16T06:08:03.550Z,17.74
2022-11-16T06:13:07.181Z,17.48
2022-11-16T06:18:10.500Z,17.31
2022-11-16T06:23:13.632Z,17.25
2022-11-16T06:28:17.221Z,17.38
2022-11-16T06:33:20.633Z,17.64
2022-11-16T06:38:24.150Z,17.76
2022-11-16T06:43:29.631Z,17.86
2022-11-16T06:48:33.457Z,18.01
2022-11-16T06:53:39.660Z,18.17
2022-11-16T06:58:43.954Z,18.33
2022-11-16T07:03:49.825Z,18.38
2022-11-16T07:08:53.348Z,18.31
2022-11-16T07:14:01.368Z,18.31
2022-11-16T07:19:05.831Z,18.63
2022-11-16T07:24:11.275Z,19.07
2022-11-16T07:29:15.134Z,19.34
2022-11-16T07:34:37.033Z,19.41
2022-11-16T07:39:47.790Z,19.49
2022-11-16T07:44:51.762Z,19.60
2022-11-16T07:49:55.787Z,19.77
2022-11-16T07:55:02.982Z,19.91
2022-11-16T08:00:08.054Z,19.84
2022-11-16T08:05:22.777Z,19.81
2022-11-16T08:10:27.505Z,19.92
2022-11-16T08:15:31.448Z,20.02
2022-11-16T08:20:38.858Z,20.17
2022-11-16T08:25:42.529Z,20.23
2022-11-16T08:30:50.971Z,20.25
2022-11-16T08:35:57.287Z,20.19
2022-11-16T08:41:01.828Z,20.27
2022-11-16T08:46:06.866Z,20.20
2022-11-16T08:51:20.552Z,20.21
2022-11-16T08:56:31.427Z,20.17
2022-11-16T09:01:34.996Z,20.17
2022-11-16T09:06:38.329Z,20.27
2022-11-16T09:11:41.711Z,20.38
2022-11-16T09:16:45.062Z,20.47
2022-11-16T09:21:48.346Z,20.36
2022-11-16T09:26:51.461Z,20.29
2022-11-16T09:31:55.908Z,20.39
2022-11-16T09:36:59.377Z,20.53
2022-11-16T09:42:16.711Z,20.50
2022-11-16T09:47:24.035Z,20.18
2022-11-16T09:52:31.621Z,19.97
2022-11-16T09:57:38.005Z,19.86
2022-11-16T10:03:07.396Z,19.78
2022-11-16T10:08:15.326Z,19.92
2022-11-16T10:13:18.618Z,20.04
2022-11-16T10:18:27.440Z,20.05
2022-11-16T10:23:45.890Z,19.85
2022-11-16T10:29:10.965Z,19.74
2022-11-16T10:34:20.606Z,19.62
2022-11-16T10:39:25.924Z,19.46
2022-11-16T10:44:44.337Z,19.44
2022-11-16T10:50:00.156Z,19.60
2022-11-16T10:55:07.078Z,19.89
2022-11-16T11:00:12.868Z,20.03
2022-11-16T11:05:21.948Z,20.16
2022-11-16T11:10:37.087Z,20.21
2022-11-16T11:15:43.122Z,20.15
2022-11-16T11:21:06.499Z,20.10
2022-11-16T11:26:36.532Z,20.07
2022-11-16T11:31:46.504Z,20.06
2022-11-16T11:36:58.800Z,19.97
2022-11-16T11:42:20.480Z,19.78
2022-11-16T11:47:56.289Z,19.63
2022-11-16T11:53:16.406Z,19.53
2022-11-16T11:58:20.085Z,19.34
2022-11-16T12:03:48.177Z,19.28
2022-11-16T12:09:15.829Z,19.30
2022-11-16T12:14:56.269Z,19.47
2022-11-16T12:20:31.934Z,19.38
2022-11-16T12:25:47.118Z,19.21
2022-11-16T12:30:59.208Z,19.20
2022-11-16T12:36:16.059Z,19.57
2022-11-16T12:41:50.379Z,19.81
2022-11-16T12:46:56.605Z,19.82
2022-11-16T12:52:02.630Z,19.67
2022-11-16T12:57:19.520Z,19.65
2022-11-16T13:02:41.765Z,19.90
2022-11-16T13:07:49.165Z,19.92
2022-11-16T13:13:22.019Z,19.82
2022-11-16T13:18:24.410Z,19.66
2022-11-16T13:23:59.844Z,19.71
2022-11-16T13:29:21.207Z,19.65
2022-11-16T13:34:32.872Z,19.57
2022-11-16T13:39:51.394Z,19.45
2022-11-16T13:45:21.118Z,19.36
2022-11-16T13:50:37.522Z,19.36
2022-11-16T13:55:44.527Z,19.32
2022-11-16T14:01:06.785Z,19.13
2022-11-16T14:06:25.167Z,19.01
2022-11-16T14:11:32.713Z,18.94
2022-11-16T14:16:50.737Z,18.80
2022-11-16T14:22:05.789Z,18.67
2022-11-16T14:27:35.720Z,18.56
2022-11-16T14:32:48.134Z,18.49
2022-11-16T14:37:57.375Z,18.34
2022-11-16T14:43:16.340Z,18.28
2022-11-16T14:48:23.052Z,18.23
2022-11-16T14:53:28.472Z,18.22
2022-11-16T14:58:31.757Z,18.24
2022-11-16T15:03:40.544Z,18.27
2022-11-16T15:08:49.350Z,18.27
2022-11-16T15:13:54.062Z,18.30
2022-11-16T15:19:02.372Z,18.36
2022-11-16T15:24:29.343Z,18.38
2022-11-16T15:29:29.442Z,18.34
2022-11-16T15:34:32.746Z,18.29
2022-11-16T15:39:36.728Z,17.11
2022-11-16T15:44:40.466Z,16.28
2022-11-16T15:49:46.697Z,15.93
2022-11-16T15:54:58.125Z,15.79
2022-11-16T16:00:02.211Z,15.71
2022-11-16T16:05:23.780Z,15.72
2022-11-16T16:10:27.524Z,15.73
2022-11-16T16:15:34.210Z,15.74
2022-11-16T16:20:38.162Z,15.77
2022-11-16T16:25:46.021Z,15.71
2022-11-16T16:30:53.564Z,15.54
2022-11-16T16:35:56.876Z,15.52
2022-11-16T16:41:05.655Z,15.45
2022-11-16T16:46:11.921Z,15.47
2022-11-16T16:51:15.223Z,15.48
2022-11-16T16:56:18.583Z,15.51
2022-11-16T17:01:22.736Z,15.58
2022-11-16T17:06:26.181Z,15.62
2022-11-16T17:11:29.363Z,15.64
2022-11-16T17:16:32.645Z,15.68
2022-11-16T17:21:36.614Z,15.76
2022-11-16T17:26:46.241Z,15.77
2022-11-16T17:31:50.032Z,15.76
2022-11-16T17:36:53.362Z,15.80
2022-11-16T17:41:56.368Z,15.87
2022-11-16T17:46:59.797Z,15.92
2022-11-16T17:52:03.399Z,15.99
2022-11-16T17:57:06.550Z,16.04
2022-11-16T18:02:13.245Z,16.05
2022-11-16T18:07:17.642Z,16.05
2022-11-16T18:12:27.910Z,16.06
2022-11-16T18:17:31.773Z,16.11
2022-11-16T18:22:35.001Z,16.09
2022-11-16T18:27:39.096Z,16.11
2022-11-16T18:32:42.483Z,16.15
2022-11-16T18:37:49.190Z,16.21
2022-11-16T18:42:52.514Z,16.24
2022-11-16T18:47:55.537Z,16.24
2022-11-16T18:52:59.204Z,16.25
2022-11-16T18:58:04.525Z,16.29
2022-11-16T19:03:17.093Z,16.30
2022-11-16T19:08:20.608Z,16.31
2022-11-16T19:13:23.832Z,16.34
2022-11-16T19:18:28.160Z,16.43
2022-11-16T19:23:36.253Z,16.57
2022-11-16T19:28:45.619Z,16.64
2022-11-16T19:33:53.049Z,16.73
2022-11-16T19:38:56.582Z,16.81
2022-11-16T19:44:00.606Z,16.87
2022-11-16T19:49:04.130Z,16.90
2022-11-16T19:54:07.626Z,16.91
2022-11-16T19:59:11.399Z,16.94
2022-11-16T20:04:14.769Z,16.99
2022-11-16T20:09:18.327Z,17.07
2022-11-16T20:14:21.727Z,17.12
2022-11-16T20:19:25.350Z,17.10
2022-11-16T20:24:28.805Z,17.11
2022-11-16T20:29:32.107Z,17.12
2022-11-16T20:34:35.108Z,17.03
2022-11-16T20:39:38.739Z,16.96
2022-11-16T20:44:42.078Z,16.91
2022-11-16T20:49:48.220Z,16.83
2022-11-16T20:54:51.495Z,16.75
2022-11-16T20:59:54.942Z,16.69
2022-11-16T21:05:00.458Z,16.61
2022-11-16T21:10:06.791Z,16.61
2022-11-16T21:15:10.876Z,16.56
2022-11-16T21:20:26.963Z,16.53
2022-11-16T21:25:30.949Z,16.48
2022-11-16T21:30:34.328Z,16.45
2022-11-16T21:35:37.486Z,16.43
2022-11-16T21:40:40.565Z,16.44
2022-11-16T21:45:44.232Z,16.44
2022-11-16T21:50:47.503Z,16.45
2022-11-16T21:55:50.895Z,16.46
2022-11-16T22:01:00.368Z,16.49
2022-11-16T22:06:13.941Z,16.52
2022-11-16T22:11:17.891Z,16.56
2022-11-16T22:16:21.710Z,16.56
2022-11-16T22:21:24.829Z,16.54
2022-11-16T22:26:28.191Z,16.50
2022-11-16T22:31:31.852Z,16.48
2022-11-16T22:36:35.403Z,16.40
2022-11-16T22:41:38.991Z,16.37
2022-11-16T22:46:42.759Z,16.36
2022-11-16T22:51:46.619Z,16.35
2022-11-16T22:56:50.297Z,16.37
2022-11-16T23:01:53.772Z,16.36
2022-11-16T23:06:56.809Z,16.33
2022-11-16T23:12:00.305Z,16.34
2022-11-16T23:17:04.304Z,16.34
2022-11-16T23:22:16.286Z,16.35
2022-11-16T23:27:19.763Z,16.36
2022-11-16T23:32:23.246Z,16.40
2022-11-16T23:37:26.606Z,16.46
2022-11-16T23:42:29.713Z,16.52
2022-11-16T23:47:32.832Z,16.55
2022-11-16T23:52:37.046Z,16.59
2022-11-16T23:57:40.591Z,16.62
